sensor_id;sensor_type;location;lat;lon;timestamp;P1;durP1;ratioP1;P2;durP2;ratioP2
30287;SDS011;17103;48.316;11.558;2023-08-31T00:01:03;1.52;;;0.95;;
30287;SDS011;17103;48.316;11.558;2023-08-31T00:03:29;1.23;;;0.82;;
30287;SDS011;17103;48.316;11.558;2023-08-31T00:05:55;0.93;;;0.82;;
30287;SDS011;17103;48.316;11.558;2023-08-31T00:08:21;3.97;;;1.77;;
30287;SDS011;17103;48.316;11.558;2023-08-31T00:10:57;1.98;;;1.15;;
30287;SDS011;17103;48.316;11.558;2023-08-31T00:13:23;0.80;;;0.63;;
30287;SDS011;17103;48.316;11.558;2023-08-31T00:15:50;1.35;;;0.82;;
30287;SDS011;17103;48.316;11.558;2023-08-31T00:18:16;2.33;;;1.60;;
30287;SDS011;17103;48.316;11.558;2023-08-31T00:20:42;1.75;;;1.02;;
30287;SDS011;17103;48.316;11.558;2023-08-31T00:23:08;4.35;;;0.98;;
30287;SDS011;17103;48.316;11.558;2023-08-31T00:25:33;2.30;;;1.48;;
30287;SDS011;17103;48.316;11.558;2023-08-31T00:27:59;1.65;;;1.05;;
30287;SDS011;17103;48.316;11.558;2023-08-31T00:30:31;1.65;;;1.10;;
30287;SDS011;17103;48.316;11.558;2023-08-31T00:32:58;3.65;;;1.38;;
30287;SDS011;17103;48.316;11.558;2023-08-31T00:35:27;1.85;;;1.70;;
30287;SDS011;17103;48.316;11.558;2023-08-31T00:37:53;1.65;;;1.50;;
30287;SDS011;17103;48.316;11.558;2023-08-31T00:40:25;1.48;;;1.17;;
30287;SDS011;17103;48.316;11.558;2023-08-31T00:45:23;2.22;;;1.48;;
30287;SDS011;17103;48.316;11.558;2023-08-31T00:47:51;2.78;;;1.20;;
30287;SDS011;17103;48.316;11.558;2023-08-31T00:50:27;3.70;;;1.00;;
30287;SDS011;17103;48.316;11.558;2023-08-31T00:52:52;1.27;;;0.85;;
30287;SDS011;17103;48.316;11.558;2023-08-31T00:55:18;1.73;;;0.90;;
30287;SDS011;17103;48.316;11.558;2023-08-31T00:57:44;1.17;;;0.90;;
30287;SDS011;17103;48.316;11.558;2023-08-31T01:00:23;0.88;;;0.65;;
30287;SDS011;17103;48.316;11.558;2023-08-31T01:03:05;1.92;;;1.02;;
30287;SDS011;17103;48.316;11.558;2023-08-31T01:05:41;3.53;;;1.25;;
30287;SDS011;17103;48.316;11.558;2023-08-31T01:14:44;1.98;;;1.30;;
30287;SDS011;17103;48.316;11.558;2023-08-31T01:17:21;1.30;;;1.02;;
30287;SDS011;17103;48.316;11.558;2023-08-31T01:23:00;1.33;;;0.90;;
30287;SDS011;17103;48.316;11.558;2023-08-31T01:25:32;1.35;;;1.00;;
30287;SDS011;17103;48.316;11.558;2023-08-31T01:28:00;1.38;;;0.93;;
30287;SDS011;17103;48.316;11.558;2023-08-31T01:30:31;1.90;;;1.25;;
30287;SDS011;17103;48.316;11.558;2023-08-31T01:32:57;1.63;;;0.90;;
30287;SDS011;17103;48.316;11.558;2023-08-31T01:38:01;1.27;;;0.70;;
30287;SDS011;17103;48.316;11.558;2023-08-31T01:40:31;2.35;;;0.82;;
30287;SDS011;17103;48.316;11.558;2023-08-31T01:43:21;1.70;;;1.10;;
30287;SDS011;17103;48.316;11.558;2023-08-31T01:45:54;1.77;;;1.27;;
30287;SDS011;17103;48.316;11.558;2023-08-31T01:48:21;1.23;;;1.05;;
30287;SDS011;17103;48.316;11.558;2023-08-31T01:55:46;2.35;;;1.42;;
30287;SDS011;17103;48.316;11.558;2023-08-31T01:58:11;2.03;;;1.42;;
30287;SDS011;17103;48.316;11.558;2023-08-31T02:00:37;2.60;;;1.83;;
30287;SDS011;17103;48.316;11.558;2023-08-31T02:03:03;3.85;;;1.58;;
30287;SDS011;17103;48.316;11.558;2023-08-31T02:05:35;2.72;;;1.65;;
30287;SDS011;17103;48.316;11.558;2023-08-31T02:08:01;3.33;;;1.83;;
30287;SDS011;17103;48.316;11.558;2023-08-31T02:10:30;2.83;;;1.45;;
30287;SDS011;17103;48.316;11.558;2023-08-31T02:12:56;2.70;;;1.80;;
30287;SDS011;17103;48.316;11.558;2023-08-31T02:15:21;3.55;;;1.88;;
30287;SDS011;17103;48.316;11.558;2023-08-31T02:17:49;2.17;;;1.60;;
30287;SDS011;17103;48.316;11.558;2023-08-31T02:20:14;1.75;;;1.27;;
30287;SDS011;17103;48.316;11.558;2023-08-31T02:22:45;2.17;;;1.35;;
30287;SDS011;17103;48.316;11.558;2023-08-31T02:25:11;1.65;;;1.55;;
30287;SDS011;17103;48.316;11.558;2023-08-31T02:27:39;3.03;;;1.67;;
30287;SDS011;17103;48.316;11.558;2023-08-31T02:30:05;1.55;;;1.33;;
30287;SDS011;17103;48.316;11.558;2023-08-31T02:32:34;1.75;;;1.65;;
30287;SDS011;17103;48.316;11.558;2023-08-31T02:35:04;1.67;;;1.50;;
30287;SDS011;17103;48.316;11.558;2023-08-31T02:37:35;1.63;;;1.52;;
30287;SDS011;17103;48.316;11.558;2023-08-31T02:40:03;2.72;;;1.90;;
30287;SDS011;17103;48.316;11.558;2023-08-31T02:42:40;2.35;;;1.80;;
30287;SDS011;17103;48.316;11.558;2023-08-31T02:45:23;2.58;;;2.00;;
30287;SDS011;17103;48.316;11.558;2023-08-31T02:48:09;2.70;;;2.40;;
30287;SDS011;17103;48.316;11.558;2023-08-31T02:50:44;2.30;;;2.10;;
30287;SDS011;17103;48.316;11.558;2023-08-31T02:53:13;3.08;;;2.17;;
30287;SDS011;17103;48.316;11.558;2023-08-31T02:55:39;2.22;;;1.83;;
30287;SDS011;17103;48.316;11.558;2023-08-31T02:58:26;1.95;;;1.52;;
30287;SDS011;17103;48.316;11.558;2023-08-31T03:00:52;1.92;;;1.65;;
30287;SDS011;17103;48.316;11.558;2023-08-31T03:03:18;2.28;;;1.75;;
30287;SDS011;17103;48.316;11.558;2023-08-31T03:05:44;1.95;;;1.80;;
30287;SDS011;17103;48.316;11.558;2023-08-31T03:08:10;2.13;;;1.80;;
30287;SDS011;17103;48.316;11.558;2023-08-31T03:10:38;2.92;;;1.88;;
30287;SDS011;17103;48.316;11.558;2023-08-31T03:13:04;1.83;;;1.30;;
30287;SDS011;17103;48.316;11.558;2023-08-31T03:15:34;5.80;;;1.55;;
30287;SDS011;17103;48.316;11.558;2023-08-31T03:18:00;2.08;;;1.35;;
30287;SDS011;17103;48.316;11.558;2023-08-31T03:20:31;2.42;;;1.65;;
30287;SDS011;17103;48.316;11.558;2023-08-31T03:23:07;3.90;;;1.48;;
30287;SDS011;17103;48.316;11.558;2023-08-31T03:25:34;3.85;;;1.83;;
30287;SDS011;17103;48.316;11.558;2023-08-31T03:28:00;1.90;;;1.67;;
30287;SDS011;17103;48.316;11.558;2023-08-31T03:30:25;1.73;;;1.50;;
30287;SDS011;17103;48.316;11.558;2023-08-31T03:32:57;2.25;;;1.73;;
30287;SDS011;17103;48.316;11.558;2023-08-31T03:35:24;1.92;;;1.70;;
30287;SDS011;17103;48.316;11.558;2023-08-31T03:37:53;2.40;;;1.75;;
30287;SDS011;17103;48.316;11.558;2023-08-31T03:40:19;2.13;;;1.67;;
30287;SDS011;17103;48.316;11.558;2023-08-31T03:42:51;2.85;;;2.13;;
30287;SDS011;17103;48.316;11.558;2023-08-31T03:45:18;2.78;;;1.60;;
30287;SDS011;17103;48.316;11.558;2023-08-31T03:47:46;2.22;;;1.83;;
30287;SDS011;17103;48.316;11.558;2023-08-31T03:50:15;2.78;;;2.03;;
30287;SDS011;17103;48.316;11.558;2023-08-31T03:52:43;2.40;;;2.15;;
30287;SDS011;17103;48.316;11.558;2023-08-31T03:55:20;2.13;;;1.88;;
30287;SDS011;17103;48.316;11.558;2023-08-31T03:57:46;2.35;;;2.15;;
30287;SDS011;17103;48.316;11.558;2023-08-31T04:00:22;2.80;;;2.33;;
30287;SDS011;17103;48.316;11.558;2023-08-31T04:05:25;4.82;;;2.50;;
30287;SDS011;17103;48.316;11.558;2023-08-31T04:07:51;4.55;;;2.33;;
30287;SDS011;17103;48.316;11.558;2023-08-31T04:10:16;2.78;;;2.47;;
30287;SDS011;17103;48.316;11.558;2023-08-31T04:12:44;3.72;;;2.70;;
30287;SDS011;17103;48.316;11.558;2023-08-31T04:15:09;4.32;;;2.78;;
30287;SDS011;17103;48.316;11.558;2023-08-31T04:17:36;4.95;;;2.58;;
30287;SDS011;17103;48.316;11.558;2023-08-31T04:20:02;2.67;;;2.40;;
30287;SDS011;17103;48.316;11.558;2023-08-31T04:22:32;2.45;;;2.25;;
30287;SDS011;17103;48.316;11.558;2023-08-31T04:24:59;3.38;;;2.88;;
30287;SDS011;17103;48.316;11.558;2023-08-31T04:27:24;4.13;;;2.55;;
30287;SDS011;17103;48.316;11.558;2023-08-31T04:29:50;3.03;;;2.30;;
30287;SDS011;17103;48.316;11.558;2023-08-31T04:32:16;4.90;;;2.60;;
30287;SDS011;17103;48.316;11.558;2023-08-31T04:34:52;4.43;;;2.80;;
30287;SDS011;17103;48.316;11.558;2023-08-31T04:37:19;3.67;;;2.50;;
30287;SDS011;17103;48.316;11.558;2023-08-31T04:39:47;3.30;;;2.67;;
30287;SDS011;17103;48.316;11.558;2023-08-31T04:42:13;4.18;;;2.65;;
30287;SDS011;17103;48.316;11.558;2023-08-31T04:44:38;2.42;;;2.22;;
30287;SDS011;17103;48.316;11.558;2023-08-31T04:47:04;3.20;;;2.50;;
30287;SDS011;17103;48.316;11.558;2023-08-31T04:49:29;5.55;;;2.40;;
30287;SDS011;17103;48.316;11.558;2023-08-31T04:51:55;3.60;;;2.50;;
30287;SDS011;17103;48.316;11.558;2023-08-31T04:56:50;2.63;;;2.05;;
30287;SDS011;17103;48.316;11.558;2023-08-31T04:59:16;2.67;;;2.25;;
30287;SDS011;17103;48.316;11.558;2023-08-31T05:01:42;2.80;;;2.13;;
30287;SDS011;17103;48.316;11.558;2023-08-31T05:04:08;4.70;;;2.00;;
30287;SDS011;17103;48.316;11.558;2023-08-31T05:06:34;2.95;;;2.30;;
30287;SDS011;17103;48.316;11.558;2023-08-31T05:09:01;3.65;;;2.25;;
30287;SDS011;17103;48.316;11.558;2023-08-31T05:11:30;2.33;;;2.05;;
30287;SDS011;17103;48.316;11.558;2023-08-31T05:13:56;2.88;;;1.80;;
30287;SDS011;17103;48.316;11.558;2023-08-31T05:16:24;2.40;;;2.10;;
30287;SDS011;17103;48.316;11.558;2023-08-31T05:18:49;2.05;;;1.77;;
30287;SDS011;17103;48.316;11.558;2023-08-31T05:21:15;2.45;;;1.95;;
30287;SDS011;17103;48.316;11.558;2023-08-31T05:26:12;3.50;;;1.77;;
30287;SDS011;17103;48.316;11.558;2023-08-31T05:28:40;3.70;;;2.53;;
30287;SDS011;17103;48.316;11.558;2023-08-31T05:31:05;3.20;;;2.88;;
30287;SDS011;17103;48.316;11.558;2023-08-31T05:33:32;2.97;;;2.05;;
30287;SDS011;17103;48.316;11.558;2023-08-31T05:36:04;4.40;;;2.28;;
30287;SDS011;17103;48.316;11.558;2023-08-31T05:38:29;2.33;;;1.63;;
30287;SDS011;17103;48.316;11.558;2023-08-31T05:43:32;5.55;;;2.40;;
30287;SDS011;17103;48.316;11.558;2023-08-31T05:46:02;1.98;;;1.48;;
30287;SDS011;17103;48.316;11.558;2023-08-31T05:48:28;2.42;;;1.90;;
30287;SDS011;17103;48.316;11.558;2023-08-31T05:50:54;4.13;;;2.00;;
30287;SDS011;17103;48.316;11.558;2023-08-31T05:53:30;2.13;;;1.50;;
30287;SDS011;17103;48.316;11.558;2023-08-31T05:55:56;2.88;;;2.13;;
30287;SDS011;17103;48.316;11.558;2023-08-31T05:58:35;2.03;;;1.52;;
30287;SDS011;17103;48.316;11.558;2023-08-31T06:01:02;1.92;;;1.55;;
30287;SDS011;17103;48.316;11.558;2023-08-31T06:03:28;2.80;;;1.60;;
30287;SDS011;17103;48.316;11.558;2023-08-31T06:05:55;2.50;;;1.70;;
30287;SDS011;17103;48.316;11.558;2023-08-31T06:08:28;3.03;;;2.03;;
30287;SDS011;17103;48.316;11.558;2023-08-31T06:11:12;3.65;;;1.92;;
30287;SDS011;17103;48.316;11.558;2023-08-31T06:13:38;3.95;;;1.90;;
30287;SDS011;17103;48.316;11.558;2023-08-31T06:16:09;2.08;;;1.27;;
30287;SDS011;17103;48.316;11.558;2023-08-31T06:18:34;3.15;;;2.00;;
30287;SDS011;17103;48.316;11.558;2023-08-31T06:21:00;4.07;;;1.30;;
30287;SDS011;17103;48.316;11.558;2023-08-31T06:23:28;2.25;;;1.58;;
30287;SDS011;17103;48.316;11.558;2023-08-31T06:25:54;1.67;;;1.48;;
30287;SDS011;17103;48.316;11.558;2023-08-31T06:28:20;3.08;;;2.45;;
30287;SDS011;17103;48.316;11.558;2023-08-31T06:30:47;2.72;;;2.00;;
30287;SDS011;17103;48.316;11.558;2023-08-31T06:33:16;4.53;;;1.98;;
30287;SDS011;17103;48.316;11.558;2023-08-31T06:35:47;1.98;;;1.50;;
30287;SDS011;17103;48.316;11.558;2023-08-31T06:38:22;3.03;;;1.50;;
30287;SDS011;17103;48.316;11.558;2023-08-31T06:40:49;2.97;;;1.50;;
30287;SDS011;17103;48.316;11.558;2023-08-31T06:43:15;2.53;;;1.75;;
30287;SDS011;17103;48.316;11.558;2023-08-31T06:45:40;2.20;;;1.50;;
30287;SDS011;17103;48.316;11.558;2023-08-31T06:48:12;2.03;;;1.58;;
30287;SDS011;17103;48.316;11.558;2023-08-31T06:50:37;2.55;;;1.27;;
30287;SDS011;17103;48.316;11.558;2023-08-31T06:53:03;2.00;;;1.38;;
30287;SDS011;17103;48.316;11.558;2023-08-31T06:55:31;2.83;;;1.40;;
30287;SDS011;17103;48.316;11.558;2023-08-31T06:57:57;4.40;;;1.65;;
30287;SDS011;17103;48.316;11.558;2023-08-31T07:00:22;5.60;;;1.40;;
30287;SDS011;17103;48.316;11.558;2023-08-31T07:02:49;1.90;;;1.27;;
30287;SDS011;17103;48.316;11.558;2023-08-31T07:05:15;2.00;;;1.52;;
30287;SDS011;17103;48.316;11.558;2023-08-31T07:07:40;2.35;;;1.38;;
30287;SDS011;17103;48.316;11.558;2023-08-31T07:10:08;2.08;;;1.10;;
30287;SDS011;17103;48.316;11.558;2023-08-31T07:12:34;1.27;;;1.00;;
30287;SDS011;17103;48.316;11.558;2023-08-31T07:14:59;2.08;;;1.15;;
30287;SDS011;17103;48.316;11.558;2023-08-31T07:17:25;1.40;;;1.10;;
30287;SDS011;17103;48.316;11.558;2023-08-31T07:19:56;1.90;;;1.15;;
30287;SDS011;17103;48.316;11.558;2023-08-31T07:22:22;1.83;;;0.90;;
30287;SDS011;17103;48.316;11.558;2023-08-31T07:24:53;2.15;;;1.10;;
30287;SDS011;17103;48.316;11.558;2023-08-31T07:27:19;1.58;;;0.98;;
30287;SDS011;17103;48.316;11.558;2023-08-31T07:29:44;2.95;;;1.20;;
30287;SDS011;17103;48.316;11.558;2023-08-31T07:32:11;1.42;;;0.95;;
30287;SDS011;17103;48.316;11.558;2023-08-31T07:34:38;1.45;;;0.88;;
30287;SDS011;17103;48.316;11.558;2023-08-31T07:37:05;5.93;;;2.42;;
30287;SDS011;17103;48.316;11.558;2023-08-31T07:39:31;2.00;;;1.23;;
30287;SDS011;17103;48.316;11.558;2023-08-31T07:42:01;1.15;;;0.93;;
30287;SDS011;17103;48.316;11.558;2023-08-31T07:44:27;0.98;;;0.68;;
30287;SDS011;17103;48.316;11.558;2023-08-31T07:46:55;1.60;;;0.95;;
30287;SDS011;17103;48.316;11.558;2023-08-31T07:49:20;2.67;;;0.90;;
30287;SDS011;17103;48.316;11.558;2023-08-31T07:51:46;1.33;;;1.15;;
30287;SDS011;17103;48.316;11.558;2023-08-31T07:54:21;2.17;;;1.00;;
30287;SDS011;17103;48.316;11.558;2023-08-31T07:56:49;2.38;;;1.10;;
30287;SDS011;17103;48.316;11.558;2023-08-31T07:59:16;3.22;;;1.20;;
30287;SDS011;17103;48.316;11.558;2023-08-31T08:01:42;2.55;;;1.02;;
30287;SDS011;17103;48.316;11.558;2023-08-31T08:04:08;1.40;;;0.80;;
30287;SDS011;17103;48.316;11.558;2023-08-31T08:06:34;2.90;;;1.42;;
30287;SDS011;17103;48.316;11.558;2023-08-31T08:08:59;3.10;;;1.25;;
30287;SDS011;17103;48.316;11.558;2023-08-31T08:11:25;3.58;;;1.13;;
30287;SDS011;17103;48.316;11.558;2023-08-31T08:13:50;1.92;;;1.13;;
30287;SDS011;17103;48.316;11.558;2023-08-31T08:16:16;1.88;;;1.10;;
30287;SDS011;17103;48.316;11.558;2023-08-31T08:18:43;3.15;;;1.10;;
30287;SDS011;17103;48.316;11.558;2023-08-31T08:21:08;1.08;;;0.95;;
30287;SDS011;17103;48.316;11.558;2023-08-31T08:23:34;2.30;;;1.15;;
30287;SDS011;17103;48.316;11.558;2023-08-31T08:25:59;6.05;;;1.02;;
30287;SDS011;17103;48.316;11.558;2023-08-31T08:28:25;2.17;;;1.00;;
30287;SDS011;17103;48.316;11.558;2023-08-31T08:30:51;2.65;;;1.00;;
30287;SDS011;17103;48.316;11.558;2023-08-31T08:33:17;3.67;;;1.13;;
30287;SDS011;17103;48.316;11.558;2023-08-31T08:35:42;3.00;;;1.20;;
30287;SDS011;17103;48.316;11.558;2023-08-31T08:38:08;1.95;;;1.00;;
30287;SDS011;17103;48.316;11.558;2023-08-31T08:40:34;2.70;;;0.90;;
30287;SDS011;17103;48.316;11.558;2023-08-31T08:43:01;3.38;;;0.90;;
30287;SDS011;17103;48.316;11.558;2023-08-31T08:45:35;1.65;;;1.15;;
30287;SDS011;17103;48.316;11.558;2023-08-31T08:48:03;2.72;;;1.00;;
30287;SDS011;17103;48.316;11.558;2023-08-31T08:50:31;3.55;;;1.30;;
30287;SDS011;17103;48.316;11.558;2023-08-31T08:52:59;4.40;;;0.98;;
30287;SDS011;17103;48.316;11.558;2023-08-31T08:55:25;4.22;;;1.58;;
30287;SDS011;17103;48.316;11.558;2023-08-31T08:57:50;2.35;;;1.25;;
30287;SDS011;17103;48.316;11.558;2023-08-31T09:00:16;1.90;;;1.23;;
30287;SDS011;17103;48.316;11.558;2023-08-31T09:02:42;2.58;;;1.15;;
30287;SDS011;17103;48.316;11.558;2023-08-31T09:05:08;2.58;;;1.13;;
30287;SDS011;17103;48.316;11.558;2023-08-31T09:07:34;2.53;;;0.80;;
30287;SDS011;17103;48.316;11.558;2023-08-31T09:10:01;5.20;;;1.00;;
30287;SDS011;17103;48.316;11.558;2023-08-31T09:12:28;2.10;;;1.00;;
30287;SDS011;17103;48.316;11.558;2023-08-31T09:15:01;2.00;;;0.80;;
30287;SDS011;17103;48.316;11.558;2023-08-31T09:17:39;2.13;;;0.73;;
30287;SDS011;17103;48.316;11.558;2023-08-31T09:20:07;2.80;;;1.00;;
30287;SDS011;17103;48.316;11.558;2023-08-31T09:22:34;3.55;;;1.20;;
30287;SDS011;17103;48.316;11.558;2023-08-31T09:25:00;4.95;;;1.30;;
30287;SDS011;17103;48.316;11.558;2023-08-31T09:27:25;2.17;;;0.70;;
30287;SDS011;17103;48.316;11.558;2023-08-31T09:29:54;2.50;;;1.02;;
30287;SDS011;17103;48.316;11.558;2023-08-31T09:32:20;1.80;;;1.13;;
30287;SDS011;17103;48.316;11.558;2023-08-31T09:34:46;1.48;;;1.05;;
30287;SDS011;17103;48.316;11.558;2023-08-31T09:37:15;3.00;;;1.80;;
30287;SDS011;17103;48.316;11.558;2023-08-31T09:39:41;1.88;;;1.13;;
30287;SDS011;17103;48.316;11.558;2023-08-31T09:42:07;3.88;;;1.33;;
30287;SDS011;17103;48.316;11.558;2023-08-31T09:44:32;3.03;;;1.25;;
30287;SDS011;17103;48.316;11.558;2023-08-31T09:46:58;2.13;;;1.27;;
30287;SDS011;17103;48.316;11.558;2023-08-31T09:49:24;3.08;;;1.20;;
30287;SDS011;17103;48.316;11.558;2023-08-31T09:51:50;2.17;;;0.93;;
30287;SDS011;17103;48.316;11.558;2023-08-31T09:54:21;4.03;;;1.40;;
30287;SDS011;17103;48.316;11.558;2023-08-31T09:56:47;2.92;;;1.25;;
30287;SDS011;17103;48.316;11.558;2023-08-31T09:59:14;2.95;;;1.20;;
30287;SDS011;17103;48.316;11.558;2023-08-31T10:01:41;3.38;;;1.20;;
30287;SDS011;17103;48.316;11.558;2023-08-31T10:04:10;3.03;;;1.25;;
30287;SDS011;17103;48.316;11.558;2023-08-31T10:06:40;2.42;;;1.15;;
30287;SDS011;17103;48.316;11.558;2023-08-31T10:09:14;4.03;;;1.20;;
30287;SDS011;17103;48.316;11.558;2023-08-31T10:11:41;2.13;;;1.13;;
30287;SDS011;17103;48.316;11.558;2023-08-31T10:14:10;1.73;;;1.02;;
30287;SDS011;17103;48.316;11.558;2023-08-31T10:16:39;2.70;;;1.10;;
30287;SDS011;17103;48.316;11.558;2023-08-31T10:19:05;2.65;;;1.38;;
30287;SDS011;17103;48.316;11.558;2023-08-31T10:21:31;3.58;;;1.50;;
30287;SDS011;17103;48.316;11.558;2023-08-31T10:23:58;4.18;;;1.58;;
30287;SDS011;17103;48.316;11.558;2023-08-31T10:26:25;4.40;;;1.50;;
30287;SDS011;17103;48.316;11.558;2023-08-31T10:28:55;2.58;;;1.30;;
30287;SDS011;17103;48.316;11.558;2023-08-31T10:31:22;2.65;;;1.20;;
30287;SDS011;17103;48.316;11.558;2023-08-31T10:34:02;4.25;;;1.50;;
30287;SDS011;17103;48.316;11.558;2023-08-31T10:36:39;2.10;;;1.40;;
30287;SDS011;17103;48.316;11.558;2023-08-31T10:41:37;2.97;;;1.42;;
30287;SDS011;17103;48.316;11.558;2023-08-31T10:44:17;2.45;;;1.17;;
30287;SDS011;17103;48.316;11.558;2023-08-31T10:46:47;5.25;;;1.83;;
30287;SDS011;17103;48.316;11.558;2023-08-31T10:49:15;2.63;;;1.15;;
30287;SDS011;17103;48.316;11.558;2023-08-31T10:51:43;2.80;;;0.98;;
30287;SDS011;17103;48.316;11.558;2023-08-31T10:59:26;4.30;;;1.65;;
30287;SDS011;17103;48.316;11.558;2023-08-31T11:02:07;2.97;;;1.30;;
30287;SDS011;17103;48.316;11.558;2023-08-31T11:04:52;3.58;;;1.08;;
30287;SDS011;17103;48.316;11.558;2023-08-31T11:07:19;3.15;;;1.40;;
30287;SDS011;17103;48.316;11.558;2023-08-31T11:09:48;4.53;;;1.33;;
30287;SDS011;17103;48.316;11.558;2023-08-31T11:12:14;3.15;;;1.50;;
30287;SDS011;17103;48.316;11.558;2023-08-31T11:14:40;4.13;;;1.73;;
30287;SDS011;17103;48.316;11.558;2023-08-31T11:17:06;9.68;;;1.55;;
30287;SDS011;17103;48.316;11.558;2023-08-31T11:19:37;4.00;;;1.40;;
30287;SDS011;17103;48.316;11.558;2023-08-31T11:22:03;2.83;;;1.50;;
30287;SDS011;17103;48.316;11.558;2023-08-31T11:24:30;4.15;;;1.58;;
30287;SDS011;17103;48.316;11.558;2023-08-31T11:26:56;2.67;;;1.40;;
30287;SDS011;17103;48.316;11.558;2023-08-31T11:29:21;6.15;;;1.75;;
30287;SDS011;17103;48.316;11.558;2023-08-31T11:31:47;4.22;;;1.60;;
30287;SDS011;17103;48.316;11.558;2023-08-31T11:34:13;5.57;;;1.50;;
30287;SDS011;17103;48.316;11.558;2023-08-31T11:36:41;1.63;;;0.98;;
30287;SDS011;17103;48.316;11.558;2023-08-31T11:39:14;2.60;;;1.02;;
30287;SDS011;17103;48.316;11.558;2023-08-31T11:41:40;2.85;;;1.13;;
30287;SDS011;17103;48.316;11.558;2023-08-31T11:44:07;2.08;;;0.93;;
30287;SDS011;17103;48.316;11.558;2023-08-31T11:46:35;1.42;;;0.90;;
30287;SDS011;17103;48.316;11.558;2023-08-31T11:49:02;4.50;;;0.90;;
30287;SDS011;17103;48.316;11.558;2023-08-31T11:51:31;3.28;;;0.95;;
30287;SDS011;17103;48.316;11.558;2023-08-31T11:53:58;2.85;;;1.23;;
30287;SDS011;17103;48.316;11.558;2023-08-31T11:56:27;1.48;;;0.85;;
30287;SDS011;17103;48.316;11.558;2023-08-31T11:59:11;3.78;;;1.08;;
30287;SDS011;17103;48.316;11.558;2023-08-31T12:01:40;8.05;;;1.23;;
30287;SDS011;17103;48.316;11.558;2023-08-31T12:04:21;2.42;;;1.15;;
30287;SDS011;17103;48.316;11.558;2023-08-31T12:06:59;3.20;;;0.90;;
30287;SDS011;17103;48.316;11.558;2023-08-31T12:09:27;3.38;;;0.90;;
30287;SDS011;17103;48.316;11.558;2023-08-31T12:11:53;3.17;;;0.95;;
30287;SDS011;17103;48.316;11.558;2023-08-31T12:14:23;3.28;;;1.23;;
30287;SDS011;17103;48.316;11.558;2023-08-31T12:16:51;3.13;;;1.08;;
30287;SDS011;17103;48.316;11.558;2023-08-31T12:19:26;2.83;;;1.13;;
30287;SDS011;17103;48.316;11.558;2023-08-31T12:21:54;3.47;;;1.10;;
30287;SDS011;17103;48.316;11.558;2023-08-31T12:24:20;2.70;;;0.82;;
30287;SDS011;17103;48.316;11.558;2023-08-31T12:26:47;1.52;;;0.90;;
30287;SDS011;17103;48.316;11.558;2023-08-31T12:29:12;2.17;;;0.90;;
30287;SDS011;17103;48.316;11.558;2023-08-31T12:31:38;2.20;;;0.90;;
30287;SDS011;17103;48.316;11.558;2023-08-31T12:34:04;1.95;;;0.90;;
30287;SDS011;17103;48.316;11.558;2023-08-31T12:36:34;4.70;;;1.23;;
30287;SDS011;17103;48.316;11.558;2023-08-31T12:39:06;5.35;;;1.40;;
30287;SDS011;17103;48.316;11.558;2023-08-31T12:41:36;2.63;;;0.90;;
30287;SDS011;17103;48.316;11.558;2023-08-31T12:44:02;2.15;;;0.80;;
30287;SDS011;17103;48.316;11.558;2023-08-31T12:46:29;3.25;;;1.00;;
30287;SDS011;17103;48.316;11.558;2023-08-31T12:48:55;3.25;;;1.00;;
30287;SDS011;17103;48.316;11.558;2023-08-31T12:51:20;3.95;;;1.00;;
30287;SDS011;17103;48.316;11.558;2023-08-31T12:53:46;4.60;;;0.88;;
30287;SDS011;17103;48.316;11.558;2023-08-31T12:56:12;5.13;;;0.98;;
30287;SDS011;17103;48.316;11.558;2023-08-31T12:58:38;1.83;;;0.82;;
30287;SDS011;17103;48.316;11.558;2023-08-31T13:01:05;4.63;;;1.10;;
30287;SDS011;17103;48.316;11.558;2023-08-31T13:03:31;3.60;;;1.00;;
30287;SDS011;17103;48.316;11.558;2023-08-31T13:06:00;1.60;;;0.98;;
30287;SDS011;17103;48.316;11.558;2023-08-31T13:09:17;6.90;;;1.80;;
30287;SDS011;17103;48.316;11.558;2023-08-31T13:12:04;2.65;;;1.25;;
30287;SDS011;17103;48.316;11.558;2023-08-31T13:14:29;4.05;;;1.00;;
30287;SDS011;17103;48.316;11.558;2023-08-31T13:16:55;3.20;;;1.00;;
30287;SDS011;17103;48.316;11.558;2023-08-31T13:19:21;3.25;;;1.40;;
30287;SDS011;17103;48.316;11.558;2023-08-31T13:21:47;4.03;;;1.00;;
30287;SDS011;17103;48.316;11.558;2023-08-31T13:24:13;4.43;;;2.00;;
30287;SDS011;17103;48.316;11.558;2023-08-31T13:26:39;3.88;;;1.00;;
30287;SDS011;17103;48.316;11.558;2023-08-31T13:29:06;3.40;;;1.13;;
30287;SDS011;17103;48.316;11.558;2023-08-31T13:31:34;5.40;;;1.50;;
30287;SDS011;17103;48.316;11.558;2023-08-31T13:34:26;2.28;;;1.10;;
30287;SDS011;17103;48.316;11.558;2023-08-31T13:36:51;1.80;;;1.05;;
30287;SDS011;17103;48.316;11.558;2023-08-31T13:39:17;4.97;;;1.42;;
30287;SDS011;17103;48.316;11.558;2023-08-31T13:41:44;2.70;;;1.10;;
30287;SDS011;17103;48.316;11.558;2023-08-31T13:44:11;3.30;;;1.38;;
30287;SDS011;17103;48.316;11.558;2023-08-31T13:46:36;4.03;;;1.15;;
30287;SDS011;17103;48.316;11.558;2023-08-31T13:49:02;3.20;;;1.08;;
30287;SDS011;17103;48.316;11.558;2023-08-31T13:51:28;3.70;;;1.10;;
30287;SDS011;17103;48.316;11.558;2023-08-31T13:53:54;3.67;;;1.10;;
30287;SDS011;17103;48.316;11.558;2023-08-31T13:56:19;2.75;;;1.15;;
30287;SDS011;17103;48.316;11.558;2023-08-31T13:58:45;2.90;;;1.30;;
30287;SDS011;17103;48.316;11.558;2023-08-31T14:01:11;2.30;;;0.95;;
30287;SDS011;17103;48.316;11.558;2023-08-31T14:03:38;3.70;;;1.05;;
30287;SDS011;17103;48.316;11.558;2023-08-31T14:06:04;2.38;;;1.08;;
30287;SDS011;17103;48.316;11.558;2023-08-31T14:08:30;2.83;;;1.10;;
30287;SDS011;17103;48.316;11.558;2023-08-31T14:10:55;3.17;;;1.05;;
30287;SDS011;17103;48.316;11.558;2023-08-31T14:13:21;3.25;;;1.05;;
30287;SDS011;17103;48.316;11.558;2023-08-31T14:15:47;2.33;;;1.10;;
30287;SDS011;17103;48.316;11.558;2023-08-31T14:18:13;2.17;;;0.80;;
30287;SDS011;17103;48.316;11.558;2023-08-31T14:20:40;4.00;;;1.02;;
30287;SDS011;17103;48.316;11.558;2023-08-31T14:23:05;2.28;;;0.82;;
30287;SDS011;17103;48.316;11.558;2023-08-31T14:25:37;3.85;;;1.65;;
30287;SDS011;17103;48.316;11.558;2023-08-31T14:28:04;4.72;;;0.90;;
30287;SDS011;17103;48.316;11.558;2023-08-31T14:30:30;2.65;;;1.23;;
30287;SDS011;17103;48.316;11.558;2023-08-31T14:32:56;1.52;;;1.23;;
30287;SDS011;17103;48.316;11.558;2023-08-31T14:35:22;4.28;;;1.10;;
30287;SDS011;17103;48.316;11.558;2023-08-31T14:37:47;1.45;;;0.80;;
30287;SDS011;17103;48.316;11.558;2023-08-31T14:40:13;4.22;;;1.05;;
30287;SDS011;17103;48.316;11.558;2023-08-31T14:42:39;3.45;;;1.15;;
30287;SDS011;17103;48.316;11.558;2023-08-31T14:45:05;7.25;;;1.15;;
30287;SDS011;17103;48.316;11.558;2023-08-31T14:47:31;1.52;;;0.85;;
30287;SDS011;17103;48.316;11.558;2023-08-31T14:50:02;2.40;;;0.80;;
30287;SDS011;17103;48.316;11.558;2023-08-31T14:52:29;3.13;;;1.35;;
30287;SDS011;17103;48.316;11.558;2023-08-31T14:54:56;1.88;;;0.90;;
30287;SDS011;17103;48.316;11.558;2023-08-31T14:57:25;4.47;;;1.13;;
30287;SDS011;17103;48.316;11.558;2023-08-31T14:59:50;3.53;;;1.20;;
30287;SDS011;17103;48.316;11.558;2023-08-31T15:02:19;2.78;;;1.10;;
30287;SDS011;17103;48.316;11.558;2023-08-31T15:04:48;3.13;;;1.10;;
30287;SDS011;17103;48.316;11.558;2023-08-31T15:07:17;3.05;;;1.25;;
30287;SDS011;17103;48.316;11.558;2023-08-31T15:09:44;1.83;;;0.98;;
30287;SDS011;17103;48.316;11.558;2023-08-31T15:12:11;2.28;;;1.08;;
30287;SDS011;17103;48.316;11.558;2023-08-31T15:14:36;3.90;;;1.00;;
30287;SDS011;17103;48.316;11.558;2023-08-31T15:17:04;3.20;;;1.05;;